aviador You're here:

KPDK Decoded Metar

PEACHTREE/DEKALB in GA, USA
Report Time2018-02-17 22:53:00
UTC Time2018-02-17 23:39:47
Flight Rules vfr VFR
Wind240° at 11 kt
W.Decomp.*RWY 27: 10.0 kt HW 4.6 kt LCW
RWY 21: 9.0 kt HW 6.3 kt RCW
RWY 16: 1.0 kt HW 11.0 kt RCW
W.Rank240° ranks 13
Current wind is above 240° avg. (6.4)
Visibility9999 m
Phenomena:N/A
Clouds:Scattered 060 Hf
Broken 085 Hf
Expected CloudBase > 4,400 ft AGL from Temp-Dew spread
Ceiling8,500 ft
Temp22°C (ISA +9)
Dew Point11°C (50% RH)
AAT18.4°C
QNH1018 hPa
Density Alt2,047 ft
Elevation991 ft
Report Wrong Elevation
Raw Report
METAR KPDK 172253Z 24011KT 10SM SCT060 BKN085 22/11 A3005 RMK AO2 SLP172
T02170106=

Extra information for KPDK:More info

Metar Taf Metar & Taf Last 4 Metars F.Rules Stats Wind Profile Meteogram Temp Stats Airport Information Weather charts Add Link Nearby VenuesMetar ALERT Operation Metar Decoded Social comments

AIRNAV info for KPDK